This is the latest recevied weather packets stored in our database for station/object KG5WBN. If no packets are shown the sender has not sent any weather packets the latest 1 day(s).
| Time | Temp. | Humidity | Pressure | Rain* | Wind** | Luminosity | Snow |
|---|---|---|---|---|---|---|---|
| 1778091118 | 31.11° C | 45% | 1012.9 hPa | 0 mm | - | 261 W/m² | - |
| 1778090815 | 31.11° C | 46% | 1012.9 hPa | 0 mm | - | 221 W/m² | - |
| 1778090511 | 30.56° C | 50% | 1012.9 hPa | 0 mm | - | 424 W/m² | - |
| 1778089905 | 30° C | 51% | 1013.2 hPa | 0 mm | - | 207 W/m² | - |
| 1778086564 | 28.33° C | 63% | 1013.5 hPa | 0 mm | - | 115 W/m² | - |
| 1778085957 | 28.33° C | 62% | 1013.5 hPa | 0 mm | - | 103 W/m² | - |
| 1778085654 | 28.33° C | 59% | 1013.2 hPa | 0 mm | - | 107 W/m² | - |
| 1778085350 | 28.89° C | 59% | 1013.5 hPa | 0 mm | - | 133 W/m² | - |
| 1778083526 | 27.78° C | 62% | 1012.9 hPa | 0 mm | - | 106 W/m² | - |
| 1778077278 | 26.67° C | 71% | 1012.5 hPa | 0 mm | - | 116 W/m² | - |
| 1778076975 | 26.67° C | 73% | 1012.2 hPa | 0 mm | - | 128 W/m² | - |
| 1778074853 | 26.11° C | 81% | 1012.2 hPa | 0 mm | - | 109 W/m² | - |
| 1778073945 | 26.11° C | 85% | 1012.2 hPa | 0 mm | - | 84 W/m² | - |
| 1778073642 | 26.11° C | 85% | 1012.2 hPa | 0 mm | - | 83 W/m² | - |
| 1778073339 | 26.11° C | 86% | 1012.2 hPa | 0 mm | - | 75 W/m² | - |
| 1778073035 | 26.11° C | 87% | 1012.2 hPa | 0 mm | - | 66 W/m² | - |
| 1778070011 | 25° C | 90% | 1011.9 hPa | 0 mm | - | 14 W/m² | - |
| 1778069708 | 25° C | 90% | 1011.9 hPa | 0 mm | - | 13 W/m² | - |
| 1778068497 | 25° C | 90% | 1011.5 hPa | 0 mm | - | 9 W/m² | - |
| 1778066379 | 25° C | 87% | 1011.5 hPa | 0 mm | - | 0 W/m² | - |
| 1778066077 | 25° C | 86% | 1011.5 hPa | 0 mm | - | 0 W/m² | - |
| 1778065472 | 25° C | 85% | 1011.5 hPa | 0 mm | - | 0 W/m² | - |
| 1778065168 | 25° C | 84% | 1011.2 hPa | 0 mm | - | 0 W/m² | - |
| 1778064562 | 25° C | 83% | 1011.2 hPa | 0 mm | - | 0 W/m² | - |
| 1778064260 | 25° C | 82% | 1011.2 hPa | 0 mm | - | 0 W/m² | - |
* Rain latest hour (hover to see other rain measurements)
** Current wind speed in m/s (hover to see current wind gust speed)